sensor_id;sensor_type;location;lat;lon;timestamp;P1;durP1;ratioP1;P2;durP2;ratioP2
769;SDS011;368;48.698;9.116;2024-01-25T00:00:49;19.50;;;4.00;;
769;SDS011;368;48.698;9.116;2024-01-25T00:03:16;11.00;;;3.83;;
769;SDS011;368;48.698;9.116;2024-01-25T00:05:44;16.83;;;4.03;;
769;SDS011;368;48.698;9.116;2024-01-25T00:08:11;11.57;;;3.33;;
769;SDS011;368;48.698;9.116;2024-01-25T00:10:38;17.03;;;4.30;;
769;SDS011;368;48.698;9.116;2024-01-25T00:13:05;16.53;;;4.10;;
769;SDS011;368;48.698;9.116;2024-01-25T00:15:32;15.20;;;3.83;;
769;SDS011;368;48.698;9.116;2024-01-25T00:17:58;11.30;;;3.23;;
769;SDS011;368;48.698;9.116;2024-01-25T00:20:25;15.17;;;3.53;;
769;SDS011;368;48.698;9.116;2024-01-25T00:22:55;11.80;;;3.00;;
769;SDS011;368;48.698;9.116;2024-01-25T00:25:22;13.30;;;3.80;;
769;SDS011;368;48.698;9.116;2024-01-25T00:27:49;19.10;;;4.67;;
769;SDS011;368;48.698;9.116;2024-01-25T00:30:16;12.83;;;3.10;;
769;SDS011;368;48.698;9.116;2024-01-25T00:32:43;10.60;;;3.40;;
769;SDS011;368;48.698;9.116;2024-01-25T00:35:10;17.27;;;4.40;;
769;SDS011;368;48.698;9.116;2024-01-25T00:37:38;13.80;;;3.53;;
769;SDS011;368;48.698;9.116;2024-01-25T00:40:09;12.77;;;3.17;;
769;SDS011;368;48.698;9.116;2024-01-25T00:42:39;8.40;;;2.87;;
769;SDS011;368;48.698;9.116;2024-01-25T00:45:09;10.33;;;3.90;;
769;SDS011;368;48.698;9.116;2024-01-25T00:47:36;10.57;;;3.00;;
769;SDS011;368;48.698;9.116;2024-01-25T00:50:04;11.10;;;3.43;;
769;SDS011;368;48.698;9.116;2024-01-25T00:52:32;19.50;;;3.30;;
769;SDS011;368;48.698;9.116;2024-01-25T00:55:01;24.07;;;3.80;;
769;SDS011;368;48.698;9.116;2024-01-25T00:57:29;13.73;;;3.00;;
769;SDS011;368;48.698;9.116;2024-01-25T00:59:57;16.60;;;3.50;;
769;SDS011;368;48.698;9.116;2024-01-25T01:02:25;12.23;;;3.50;;
769;SDS011;368;48.698;9.116;2024-01-25T01:04:56;14.60;;;3.43;;
769;SDS011;368;48.698;9.116;2024-01-25T01:07:23;11.43;;;3.00;;
769;SDS011;368;48.698;9.116;2024-01-25T01:09:50;6.80;;;2.63;;
769;SDS011;368;48.698;9.116;2024-01-25T01:12:17;15.83;;;3.30;;
769;SDS011;368;48.698;9.116;2024-01-25T01:14:45;12.27;;;3.53;;
769;SDS011;368;48.698;9.116;2024-01-25T01:17:13;8.90;;;4.57;;
769;SDS011;368;48.698;9.116;2024-01-25T01:19:40;13.70;;;3.07;;
769;SDS011;368;48.698;9.116;2024-01-25T01:22:07;10.77;;;3.50;;
769;SDS011;368;48.698;9.116;2024-01-25T01:24:33;17.27;;;4.30;;
769;SDS011;368;48.698;9.116;2024-01-25T01:27:00;10.27;;;4.30;;
769;SDS011;368;48.698;9.116;2024-01-25T01:29:27;10.17;;;3.23;;
769;SDS011;368;48.698;9.116;2024-01-25T01:31:56;9.60;;;3.10;;
769;SDS011;368;48.698;9.116;2024-01-25T01:34:23;11.60;;;3.40;;
769;SDS011;368;48.698;9.116;2024-01-25T01:36:50;10.70;;;2.50;;
769;SDS011;368;48.698;9.116;2024-01-25T01:39:17;13.03;;;3.30;;
769;SDS011;368;48.698;9.116;2024-01-25T01:41:46;11.87;;;3.57;;
769;SDS011;368;48.698;9.116;2024-01-25T01:44:13;9.97;;;3.50;;
769;SDS011;368;48.698;9.116;2024-01-25T01:46:40;7.80;;;2.47;;
769;SDS011;368;48.698;9.116;2024-01-25T01:49:10;10.43;;;3.03;;
769;SDS011;368;48.698;9.116;2024-01-25T01:51:38;13.43;;;2.93;;
769;SDS011;368;48.698;9.116;2024-01-25T01:54:06;14.20;;;3.70;;
769;SDS011;368;48.698;9.116;2024-01-25T01:56:34;11.63;;;3.40;;
769;SDS011;368;48.698;9.116;2024-01-25T01:59:01;6.80;;;2.60;;
769;SDS011;368;48.698;9.116;2024-01-25T02:01:30;16.50;;;3.60;;
769;SDS011;368;48.698;9.116;2024-01-25T02:03:57;16.53;;;3.93;;
769;SDS011;368;48.698;9.116;2024-01-25T02:06:25;7.53;;;2.77;;
769;SDS011;368;48.698;9.116;2024-01-25T02:08:52;15.07;;;3.53;;
769;SDS011;368;48.698;9.116;2024-01-25T02:11:21;15.90;;;3.60;;
769;SDS011;368;48.698;9.116;2024-01-25T02:13:48;16.10;;;3.47;;
769;SDS011;368;48.698;9.116;2024-01-25T02:16:14;13.07;;;3.47;;
769;SDS011;368;48.698;9.116;2024-01-25T02:18:42;13.73;;;3.27;;
769;SDS011;368;48.698;9.116;2024-01-25T02:21:09;11.43;;;2.53;;
769;SDS011;368;48.698;9.116;2024-01-25T02:23:38;9.00;;;3.13;;
769;SDS011;368;48.698;9.116;2024-01-25T02:26:04;11.77;;;3.67;;
769;SDS011;368;48.698;9.116;2024-01-25T02:28:31;9.00;;;3.33;;
769;SDS011;368;48.698;9.116;2024-01-25T02:31:00;14.63;;;4.60;;
769;SDS011;368;48.698;9.116;2024-01-25T02:33:27;15.50;;;4.13;;
769;SDS011;368;48.698;9.116;2024-01-25T02:35:54;8.53;;;2.70;;
769;SDS011;368;48.698;9.116;2024-01-25T02:38:21;10.20;;;3.27;;
769;SDS011;368;48.698;9.116;2024-01-25T02:40:49;17.43;;;3.47;;
769;SDS011;368;48.698;9.116;2024-01-25T02:43:15;8.20;;;2.30;;
769;SDS011;368;48.698;9.116;2024-01-25T02:45:42;10.93;;;3.20;;
769;SDS011;368;48.698;9.116;2024-01-25T02:48:09;9.40;;;2.60;;
769;SDS011;368;48.698;9.116;2024-01-25T02:50:36;16.43;;;4.83;;
769;SDS011;368;48.698;9.116;2024-01-25T02:53:02;15.10;;;2.90;;
769;SDS011;368;48.698;9.116;2024-01-25T02:55:30;9.17;;;2.80;;
769;SDS011;368;48.698;9.116;2024-01-25T02:57:58;11.37;;;2.87;;
769;SDS011;368;48.698;9.116;2024-01-25T03:00:25;17.33;;;3.27;;
769;SDS011;368;48.698;9.116;2024-01-25T03:02:52;12.03;;;3.40;;
769;SDS011;368;48.698;9.116;2024-01-25T03:05:19;13.47;;;3.77;;
769;SDS011;368;48.698;9.116;2024-01-25T03:07:45;10.53;;;3.37;;
769;SDS011;368;48.698;9.116;2024-01-25T03:10:12;5.90;;;2.50;;
769;SDS011;368;48.698;9.116;2024-01-25T03:12:39;15.13;;;3.00;;
769;SDS011;368;48.698;9.116;2024-01-25T03:15:08;6.67;;;3.20;;
769;SDS011;368;48.698;9.116;2024-01-25T03:17:37;9.97;;;3.00;;
769;SDS011;368;48.698;9.116;2024-01-25T03:20:04;11.73;;;3.40;;
769;SDS011;368;48.698;9.116;2024-01-25T03:22:32;13.23;;;3.80;;
769;SDS011;368;48.698;9.116;2024-01-25T03:24:59;7.43;;;3.13;;
769;SDS011;368;48.698;9.116;2024-01-25T03:27:27;14.90;;;3.00;;
769;SDS011;368;48.698;9.116;2024-01-25T03:29:54;13.87;;;2.90;;
769;SDS011;368;48.698;9.116;2024-01-25T03:32:22;9.80;;;3.50;;
769;SDS011;368;48.698;9.116;2024-01-25T03:34:49;10.53;;;3.60;;
769;SDS011;368;48.698;9.116;2024-01-25T03:37:16;13.63;;;4.50;;
769;SDS011;368;48.698;9.116;2024-01-25T03:39:42;10.67;;;2.90;;
769;SDS011;368;48.698;9.116;2024-01-25T03:42:09;8.80;;;3.20;;
769;SDS011;368;48.698;9.116;2024-01-25T03:44:36;10.40;;;2.80;;
769;SDS011;368;48.698;9.116;2024-01-25T03:47:03;7.90;;;3.20;;
769;SDS011;368;48.698;9.116;2024-01-25T03:49:32;16.27;;;3.53;;
769;SDS011;368;48.698;9.116;2024-01-25T03:51:59;13.33;;;3.90;;
769;SDS011;368;48.698;9.116;2024-01-25T03:54:25;8.37;;;3.73;;
769;SDS011;368;48.698;9.116;2024-01-25T03:56:52;11.50;;;2.60;;
769;SDS011;368;48.698;9.116;2024-01-25T03:59:19;7.13;;;3.17;;
769;SDS011;368;48.698;9.116;2024-01-25T04:01:46;7.33;;;2.53;;
769;SDS011;368;48.698;9.116;2024-01-25T04:04:16;13.43;;;3.20;;
769;SDS011;368;48.698;9.116;2024-01-25T04:06:44;9.47;;;2.87;;
769;SDS011;368;48.698;9.116;2024-01-25T04:09:12;12.63;;;3.93;;
769;SDS011;368;48.698;9.116;2024-01-25T04:11:40;10.60;;;2.67;;
769;SDS011;368;48.698;9.116;2024-01-25T04:14:07;8.83;;;2.70;;
769;SDS011;368;48.698;9.116;2024-01-25T04:16:34;7.03;;;2.87;;
769;SDS011;368;48.698;9.116;2024-01-25T04:19:03;15.10;;;3.80;;
769;SDS011;368;48.698;9.116;2024-01-25T04:21:29;11.03;;;3.10;;
769;SDS011;368;48.698;9.116;2024-01-25T04:23:57;9.67;;;3.13;;
769;SDS011;368;48.698;9.116;2024-01-25T04:26:24;7.73;;;2.40;;
769;SDS011;368;48.698;9.116;2024-01-25T04:28:51;12.67;;;4.07;;
769;SDS011;368;48.698;9.116;2024-01-25T04:31:17;9.90;;;2.53;;
769;SDS011;368;48.698;9.116;2024-01-25T04:33:44;9.23;;;3.10;;
769;SDS011;368;48.698;9.116;2024-01-25T04:36:12;14.47;;;2.67;;
769;SDS011;368;48.698;9.116;2024-01-25T04:38:38;16.50;;;3.57;;
769;SDS011;368;48.698;9.116;2024-01-25T04:41:07;18.80;;;3.60;;
769;SDS011;368;48.698;9.116;2024-01-25T04:43:33;8.53;;;3.20;;
769;SDS011;368;48.698;9.116;2024-01-25T04:46:01;12.43;;;3.97;;
769;SDS011;368;48.698;9.116;2024-01-25T04:48:28;9.57;;;3.50;;
769;SDS011;368;48.698;9.116;2024-01-25T04:50:55;15.97;;;4.13;;
769;SDS011;368;48.698;9.116;2024-01-25T04:53:23;12.97;;;3.20;;
769;SDS011;368;48.698;9.116;2024-01-25T04:55:53;12.00;;;3.33;;
769;SDS011;368;48.698;9.116;2024-01-25T04:58:21;5.60;;;2.90;;
769;SDS011;368;48.698;9.116;2024-01-25T05:00:48;7.03;;;2.50;;
769;SDS011;368;48.698;9.116;2024-01-25T05:03:15;15.20;;;2.97;;
769;SDS011;368;48.698;9.116;2024-01-25T05:05:42;9.50;;;3.27;;
769;SDS011;368;48.698;9.116;2024-01-25T05:08:09;15.97;;;3.57;;
769;SDS011;368;48.698;9.116;2024-01-25T05:10:35;10.80;;;4.43;;
769;SDS011;368;48.698;9.116;2024-01-25T05:13:02;7.60;;;2.70;;
769;SDS011;368;48.698;9.116;2024-01-25T05:15:31;12.20;;;4.30;;
769;SDS011;368;48.698;9.116;2024-01-25T05:17:58;15.57;;;3.77;;
769;SDS011;368;48.698;9.116;2024-01-25T05:20:25;11.73;;;4.03;;
769;SDS011;368;48.698;9.116;2024-01-25T05:22:57;11.73;;;3.40;;
769;SDS011;368;48.698;9.116;2024-01-25T05:25:23;10.93;;;3.17;;
769;SDS011;368;48.698;9.116;2024-01-25T05:27:51;13.03;;;3.50;;
769;SDS011;368;48.698;9.116;2024-01-25T05:30:17;15.70;;;3.70;;
769;SDS011;368;48.698;9.116;2024-01-25T05:32:46;10.17;;;3.70;;
769;SDS011;368;48.698;9.116;2024-01-25T05:35:13;9.90;;;3.77;;
769;SDS011;368;48.698;9.116;2024-01-25T05:37:40;10.07;;;4.00;;
769;SDS011;368;48.698;9.116;2024-01-25T05:40:08;18.53;;;4.87;;
769;SDS011;368;48.698;9.116;2024-01-25T05:42:35;10.53;;;4.20;;
769;SDS011;368;48.698;9.116;2024-01-25T05:45:02;10.30;;;3.93;;
769;SDS011;368;48.698;9.116;2024-01-25T05:47:30;6.57;;;3.20;;
769;SDS011;368;48.698;9.116;2024-01-25T05:50:01;15.10;;;4.27;;
769;SDS011;368;48.698;9.116;2024-01-25T05:52:28;9.53;;;4.10;;
769;SDS011;368;48.698;9.116;2024-01-25T05:54:55;14.63;;;3.90;;
769;SDS011;368;48.698;9.116;2024-01-25T05:57:22;10.07;;;4.00;;
769;SDS011;368;48.698;9.116;2024-01-25T05:59:48;10.23;;;4.90;;
769;SDS011;368;48.698;9.116;2024-01-25T06:02:15;15.23;;;4.53;;
769;SDS011;368;48.698;9.116;2024-01-25T06:04:42;12.20;;;4.97;;
769;SDS011;368;48.698;9.116;2024-01-25T06:07:10;13.33;;;3.63;;
769;SDS011;368;48.698;9.116;2024-01-25T06:09:37;9.73;;;3.80;;
769;SDS011;368;48.698;9.116;2024-01-25T06:12:04;14.23;;;4.57;;
769;SDS011;368;48.698;9.116;2024-01-25T06:14:31;18.07;;;4.00;;
769;SDS011;368;48.698;9.116;2024-01-25T06:16:58;14.57;;;5.00;;
769;SDS011;368;48.698;9.116;2024-01-25T06:19:24;12.20;;;3.73;;
769;SDS011;368;48.698;9.116;2024-01-25T06:21:51;13.10;;;3.70;;
769;SDS011;368;48.698;9.116;2024-01-25T06:24:20;10.80;;;4.27;;
769;SDS011;368;48.698;9.116;2024-01-25T06:26:46;12.90;;;4.17;;
769;SDS011;368;48.698;9.116;2024-01-25T06:29:13;11.87;;;4.03;;
769;SDS011;368;48.698;9.116;2024-01-25T06:31:41;11.03;;;4.70;;
769;SDS011;368;48.698;9.116;2024-01-25T06:34:08;13.50;;;5.13;;
769;SDS011;368;48.698;9.116;2024-01-25T06:36:35;18.50;;;4.73;;
769;SDS011;368;48.698;9.116;2024-01-25T06:39:02;11.80;;;4.70;;
769;SDS011;368;48.698;9.116;2024-01-25T06:41:31;13.87;;;4.77;;
769;SDS011;368;48.698;9.116;2024-01-25T06:43:58;9.20;;;3.70;;
769;SDS011;368;48.698;9.116;2024-01-25T06:46:25;15.60;;;4.30;;
769;SDS011;368;48.698;9.116;2024-01-25T06:48:52;12.53;;;4.13;;
769;SDS011;368;48.698;9.116;2024-01-25T06:51:18;17.40;;;5.13;;
769;SDS011;368;48.698;9.116;2024-01-25T06:53:45;11.60;;;3.10;;
769;SDS011;368;48.698;9.116;2024-01-25T06:56:12;10.87;;;3.50;;
769;SDS011;368;48.698;9.116;2024-01-25T06:58:40;15.90;;;4.13;;
769;SDS011;368;48.698;9.116;2024-01-25T07:01:07;16.80;;;4.77;;
769;SDS011;368;48.698;9.116;2024-01-25T07:03:34;7.57;;;3.47;;
769;SDS011;368;48.698;9.116;2024-01-25T07:06:01;10.77;;;4.40;;
769;SDS011;368;48.698;9.116;2024-01-25T07:08:28;11.10;;;3.90;;
769;SDS011;368;48.698;9.116;2024-01-25T07:10:55;11.10;;;3.73;;
769;SDS011;368;48.698;9.116;2024-01-25T07:13:24;24.20;;;5.00;;
769;SDS011;368;48.698;9.116;2024-01-25T07:15:52;12.53;;;3.93;;
769;SDS011;368;48.698;9.116;2024-01-25T07:18:19;8.97;;;3.93;;
769;SDS011;368;48.698;9.116;2024-01-25T07:20:47;15.23;;;4.40;;
769;SDS011;368;48.698;9.116;2024-01-25T07:23:14;10.33;;;4.73;;
769;SDS011;368;48.698;9.116;2024-01-25T07:25:41;14.87;;;4.83;;
769;SDS011;368;48.698;9.116;2024-01-25T07:28:08;13.70;;;4.50;;
769;SDS011;368;48.698;9.116;2024-01-25T07:30:35;14.93;;;4.13;;
769;SDS011;368;48.698;9.116;2024-01-25T07:33:03;10.33;;;4.00;;
769;SDS011;368;48.698;9.116;2024-01-25T07:35:30;12.87;;;4.77;;
769;SDS011;368;48.698;9.116;2024-01-25T07:37:57;14.57;;;4.17;;
769;SDS011;368;48.698;9.116;2024-01-25T07:40:24;15.10;;;4.93;;
769;SDS011;368;48.698;9.116;2024-01-25T07:42:51;13.47;;;3.87;;
769;SDS011;368;48.698;9.116;2024-01-25T07:45:18;8.43;;;4.50;;
769;SDS011;368;48.698;9.116;2024-01-25T07:47:44;16.13;;;4.70;;
769;SDS011;368;48.698;9.116;2024-01-25T07:50:12;16.83;;;5.07;;
769;SDS011;368;48.698;9.116;2024-01-25T07:52:39;11.27;;;4.40;;
769;SDS011;368;48.698;9.116;2024-01-25T07:55:06;16.90;;;4.10;;
769;SDS011;368;48.698;9.116;2024-01-25T07:57:34;13.50;;;4.13;;
769;SDS011;368;48.698;9.116;2024-01-25T08:00:01;9.10;;;3.70;;
769;SDS011;368;48.698;9.116;2024-01-25T08:02:29;9.63;;;3.93;;
769;SDS011;368;48.698;9.116;2024-01-25T08:04:56;5.97;;;2.97;;
769;SDS011;368;48.698;9.116;2024-01-25T08:07:24;11.97;;;3.67;;
769;SDS011;368;48.698;9.116;2024-01-25T08:09:51;9.40;;;3.50;;
769;SDS011;368;48.698;9.116;2024-01-25T08:12:18;7.50;;;3.53;;
769;SDS011;368;48.698;9.116;2024-01-25T08:14:44;13.40;;;3.90;;
769;SDS011;368;48.698;9.116;2024-01-25T08:17:11;9.83;;;3.40;;
769;SDS011;368;48.698;9.116;2024-01-25T08:19:38;8.20;;;3.43;;
769;SDS011;368;48.698;9.116;2024-01-25T08:22:05;14.87;;;4.03;;
769;SDS011;368;48.698;9.116;2024-01-25T08:24:33;9.70;;;3.43;;
769;SDS011;368;48.698;9.116;2024-01-25T08:27:00;18.00;;;4.07;;
769;SDS011;368;48.698;9.116;2024-01-25T08:29:27;12.60;;;4.17;;
769;SDS011;368;48.698;9.116;2024-01-25T08:31:54;12.73;;;3.20;;
769;SDS011;368;48.698;9.116;2024-01-25T08:34:20;11.40;;;3.37;;
769;SDS011;368;48.698;9.116;2024-01-25T08:36:47;10.90;;;3.53;;
769;SDS011;368;48.698;9.116;2024-01-25T08:39:14;12.97;;;3.90;;
769;SDS011;368;48.698;9.116;2024-01-25T08:41:42;7.50;;;2.80;;
769;SDS011;368;48.698;9.116;2024-01-25T08:44:10;10.60;;;3.50;;
769;SDS011;368;48.698;9.116;2024-01-25T08:46:37;11.33;;;3.20;;
769;SDS011;368;48.698;9.116;2024-01-25T08:49:04;16.77;;;3.77;;
769;SDS011;368;48.698;9.116;2024-01-25T08:51:33;14.77;;;3.90;;
769;SDS011;368;48.698;9.116;2024-01-25T08:54:00;8.73;;;3.13;;
769;SDS011;368;48.698;9.116;2024-01-25T08:56:28;13.10;;;3.73;;
769;SDS011;368;48.698;9.116;2024-01-25T08:58:56;9.50;;;3.07;;
769;SDS011;368;48.698;9.116;2024-01-25T09:01:23;7.17;;;2.80;;
769;SDS011;368;48.698;9.116;2024-01-25T09:03:50;8.20;;;2.70;;
769;SDS011;368;48.698;9.116;2024-01-25T09:06:17;9.70;;;2.97;;
769;SDS011;368;48.698;9.116;2024-01-25T09:08:43;10.93;;;3.67;;
769;SDS011;368;48.698;9.116;2024-01-25T09:11:10;9.20;;;3.90;;
769;SDS011;368;48.698;9.116;2024-01-25T09:13:37;9.80;;;3.80;;
769;SDS011;368;48.698;9.116;2024-01-25T09:16:10;10.20;;;4.13;;
769;SDS011;368;48.698;9.116;2024-01-25T09:18:37;8.90;;;3.30;;
769;SDS011;368;48.698;9.116;2024-01-25T09:21:04;12.03;;;3.37;;
769;SDS011;368;48.698;9.116;2024-01-25T09:23:31;15.30;;;3.50;;
769;SDS011;368;48.698;9.116;2024-01-25T09:25:57;8.40;;;2.73;;
769;SDS011;368;48.698;9.116;2024-01-25T09:28:24;11.50;;;3.37;;
769;SDS011;368;48.698;9.116;2024-01-25T09:30:51;9.70;;;3.10;;
769;SDS011;368;48.698;9.116;2024-01-25T09:33:19;9.87;;;3.17;;
769;SDS011;368;48.698;9.116;2024-01-25T09:35:46;11.03;;;3.00;;
769;SDS011;368;48.698;9.116;2024-01-25T09:38:13;8.83;;;3.43;;
769;SDS011;368;48.698;9.116;2024-01-25T09:40:40;8.63;;;2.53;;
769;SDS011;368;48.698;9.116;2024-01-25T09:43:06;14.17;;;3.23;;
769;SDS011;368;48.698;9.116;2024-01-25T09:45:34;15.37;;;3.40;;
769;SDS011;368;48.698;9.116;2024-01-25T09:48:00;11.10;;;3.47;;
769;SDS011;368;48.698;9.116;2024-01-25T09:50:30;8.50;;;2.50;;
769;SDS011;368;48.698;9.116;2024-01-25T09:52:59;8.27;;;2.43;;
769;SDS011;368;48.698;9.116;2024-01-25T09:55:26;10.40;;;3.27;;
769;SDS011;368;48.698;9.116;2024-01-25T09:57:53;13.73;;;3.13;;
769;SDS011;368;48.698;9.116;2024-01-25T10:00:21;14.17;;;2.97;;
769;SDS011;368;48.698;9.116;2024-01-25T10:02:48;12.13;;;3.10;;
769;SDS011;368;48.698;9.116;2024-01-25T10:05:16;10.53;;;4.20;;
769;SDS011;368;48.698;9.116;2024-01-25T10:07:45;12.53;;;3.50;;
769;SDS011;368;48.698;9.116;2024-01-25T10:10:12;12.30;;;3.60;;
769;SDS011;368;48.698;9.116;2024-01-25T10:12:39;8.40;;;3.10;;
769;SDS011;368;48.698;9.116;2024-01-25T10:15:07;9.80;;;3.37;;
769;SDS011;368;48.698;9.116;2024-01-25T10:17:35;13.57;;;2.70;;
769;SDS011;368;48.698;9.116;2024-01-25T10:20:04;14.73;;;3.47;;
769;SDS011;368;48.698;9.116;2024-01-25T10:22:35;12.57;;;3.40;;
769;SDS011;368;48.698;9.116;2024-01-25T10:25:05;11.23;;;3.17;;
769;SDS011;368;48.698;9.116;2024-01-25T10:27:37;9.83;;;2.83;;
769;SDS011;368;48.698;9.116;2024-01-25T10:30:05;9.93;;;2.57;;
769;SDS011;368;48.698;9.116;2024-01-25T10:32:33;10.30;;;2.80;;
769;SDS011;368;48.698;9.116;2024-01-25T10:35:01;9.20;;;2.80;;
769;SDS011;368;48.698;9.116;2024-01-25T10:37:28;9.90;;;3.50;;
769;SDS011;368;48.698;9.116;2024-01-25T10:39:57;10.80;;;3.73;;
769;SDS011;368;48.698;9.116;2024-01-25T10:42:26;15.90;;;4.23;;
769;SDS011;368;48.698;9.116;2024-01-25T10:44:53;6.00;;;2.43;;
769;SDS011;368;48.698;9.116;2024-01-25T10:47:20;5.23;;;2.63;;
769;SDS011;368;48.698;9.116;2024-01-25T10:49:48;7.53;;;2.93;;
769;SDS011;368;48.698;9.116;2024-01-25T10:52:15;8.60;;;3.50;;
769;SDS011;368;48.698;9.116;2024-01-25T10:54:42;11.13;;;2.50;;
769;SDS011;368;48.698;9.116;2024-01-25T10:57:09;11.87;;;3.10;;
769;SDS011;368;48.698;9.116;2024-01-25T10:59:37;5.80;;;2.73;;
769;SDS011;368;48.698;9.116;2024-01-25T11:02:04;11.30;;;2.70;;
769;SDS011;368;48.698;9.116;2024-01-25T11:04:31;7.27;;;2.60;;
769;SDS011;368;48.698;9.116;2024-01-25T11:07:04;6.83;;;2.67;;
769;SDS011;368;48.698;9.116;2024-01-25T11:09:32;8.20;;;2.40;;
769;SDS011;368;48.698;9.116;2024-01-25T11:12:01;7.27;;;2.23;;
769;SDS011;368;48.698;9.116;2024-01-25T11:14:37;5.80;;;3.20;;
769;SDS011;368;48.698;9.116;2024-01-25T11:17:14;9.70;;;2.70;;
769;SDS011;368;48.698;9.116;2024-01-25T11:19:41;8.87;;;3.10;;
769;SDS011;368;48.698;9.116;2024-01-25T11:22:10;10.37;;;2.67;;
769;SDS011;368;48.698;9.116;2024-01-25T11:24:37;9.00;;;2.67;;
769;SDS011;368;48.698;9.116;2024-01-25T11:27:04;6.77;;;2.70;;
769;SDS011;368;48.698;9.116;2024-01-25T11:29:32;7.43;;;2.07;;
769;SDS011;368;48.698;9.116;2024-01-25T11:32:00;10.23;;;2.40;;
769;SDS011;368;48.698;9.116;2024-01-25T11:34:30;7.20;;;2.53;;
769;SDS011;368;48.698;9.116;2024-01-25T11:36:57;10.37;;;2.67;;
769;SDS011;368;48.698;9.116;2024-01-25T11:39:24;6.80;;;2.77;;
769;SDS011;368;48.698;9.116;2024-01-25T11:41:51;10.70;;;3.10;;
769;SDS011;368;48.698;9.116;2024-01-25T11:44:18;7.73;;;2.60;;
769;SDS011;368;48.698;9.116;2024-01-25T11:46:48;7.73;;;2.53;;
769;SDS011;368;48.698;9.116;2024-01-25T11:49:17;8.80;;;2.00;;
769;SDS011;368;48.698;9.116;2024-01-25T11:51:44;6.23;;;2.10;;
769;SDS011;368;48.698;9.116;2024-01-25T11:54:11;4.63;;;2.30;;
769;SDS011;368;48.698;9.116;2024-01-25T11:56:38;4.63;;;2.20;;
769;SDS011;368;48.698;9.116;2024-01-25T11:59:07;6.80;;;1.83;;
769;SDS011;368;48.698;9.116;2024-01-25T12:01:34;7.83;;;2.50;;
769;SDS011;368;48.698;9.116;2024-01-25T12:04:01;4.67;;;1.57;;
769;SDS011;368;48.698;9.116;2024-01-25T12:06:29;7.67;;;2.43;;
769;SDS011;368;48.698;9.116;2024-01-25T12:09:05;5.53;;;2.03;;
769;SDS011;368;48.698;9.116;2024-01-25T12:11:33;6.40;;;2.20;;
769;SDS011;368;48.698;9.116;2024-01-25T12:14:00;5.93;;;1.70;;
769;SDS011;368;48.698;9.116;2024-01-25T12:16:27;6.57;;;2.37;;
769;SDS011;368;48.698;9.116;2024-01-25T12:18:53;5.70;;;2.10;;
769;SDS011;368;48.698;9.116;2024-01-25T12:21:20;5.30;;;2.07;;
769;SDS011;368;48.698;9.116;2024-01-25T12:23:48;3.57;;;1.70;;
769;SDS011;368;48.698;9.116;2024-01-25T12:26:15;7.00;;;2.37;;
769;SDS011;368;48.698;9.116;2024-01-25T12:28:42;5.70;;;2.60;;
769;SDS011;368;48.698;9.116;2024-01-25T12:31:09;6.70;;;2.20;;
769;SDS011;368;48.698;9.116;2024-01-25T12:33:36;7.37;;;2.30;;
769;SDS011;368;48.698;9.116;2024-01-25T12:36:03;9.00;;;2.20;;
769;SDS011;368;48.698;9.116;2024-01-25T12:38:30;5.93;;;1.93;;
769;SDS011;368;48.698;9.116;2024-01-25T12:41:00;5.17;;;1.93;;
769;SDS011;368;48.698;9.116;2024-01-25T12:43:28;7.50;;;2.13;;
769;SDS011;368;48.698;9.116;2024-01-25T12:45:54;7.73;;;1.80;;
769;SDS011;368;48.698;9.116;2024-01-25T12:48:21;4.70;;;1.93;;
769;SDS011;368;48.698;9.116;2024-01-25T12:50:47;13.40;;;2.53;;
769;SDS011;368;48.698;9.116;2024-01-25T12:53:14;9.93;;;2.43;;
769;SDS011;368;48.698;9.116;2024-01-25T12:55:42;6.10;;;2.13;;
769;SDS011;368;48.698;9.116;2024-01-25T12:58:10;6.20;;;2.10;;
769;SDS011;368;48.698;9.116;2024-01-25T13:00:37;5.87;;;2.40;;
769;SDS011;368;48.698;9.116;2024-01-25T13:03:04;6.70;;;2.10;;
769;SDS011;368;48.698;9.116;2024-01-25T13:05:31;5.43;;;1.60;;
769;SDS011;368;48.698;9.116;2024-01-25T13:07:59;7.17;;;2.10;;
769;SDS011;368;48.698;9.116;2024-01-25T13:10:26;6.90;;;2.20;;
769;SDS011;368;48.698;9.116;2024-01-25T13:12:53;6.30;;;2.07;;
769;SDS011;368;48.698;9.116;2024-01-25T13:15:21;3.33;;;1.57;;
769;SDS011;368;48.698;9.116;2024-01-25T13:17:48;7.13;;;3.00;;
769;SDS011;368;48.698;9.116;2024-01-25T13:20:15;4.67;;;1.90;;
769;SDS011;368;48.698;9.116;2024-01-25T13:22:42;7.83;;;2.00;;
769;SDS011;368;48.698;9.116;2024-01-25T13:25:08;7.03;;;2.43;;
769;SDS011;368;48.698;9.116;2024-01-25T13:27:37;5.23;;;1.73;;
769;SDS011;368;48.698;9.116;2024-01-25T13:30:04;6.30;;;2.07;;
769;SDS011;368;48.698;9.116;2024-01-25T13:32:33;4.73;;;1.57;;
769;SDS011;368;48.698;9.116;2024-01-25T13:34:59;5.30;;;2.23;;
769;SDS011;368;48.698;9.116;2024-01-25T13:37:26;3.80;;;2.20;;
769;SDS011;368;48.698;9.116;2024-01-25T13:39:53;6.10;;;1.73;;
769;SDS011;368;48.698;9.116;2024-01-25T13:42:20;4.60;;;1.40;;
769;SDS011;368;48.698;9.116;2024-01-25T13:44:46;4.10;;;2.03;;
769;SDS011;368;48.698;9.116;2024-01-25T13:47:13;6.37;;;1.67;;
769;SDS011;368;48.698;9.116;2024-01-25T13:49:41;8.57;;;1.73;;
769;SDS011;368;48.698;9.116;2024-01-25T13:52:14;4.87;;;1.53;;
769;SDS011;368;48.698;9.116;2024-01-25T13:54:43;6.03;;;1.93;;
769;SDS011;368;48.698;9.116;2024-01-25T13:57:10;3.83;;;1.53;;
769;SDS011;368;48.698;9.116;2024-01-25T13:59:37;4.57;;;1.53;;
769;SDS011;368;48.698;9.116;2024-01-25T14:02:04;5.50;;;1.67;;
769;SDS011;368;48.698;9.116;2024-01-25T14:04:31;5.27;;;1.90;;
769;SDS011;368;48.698;9.116;2024-01-25T14:06:59;5.53;;;1.90;;
769;SDS011;368;48.698;9.116;2024-01-25T14:09:27;7.30;;;2.10;;
769;SDS011;368;48.698;9.116;2024-01-25T14:11:56;5.03;;;1.80;;
769;SDS011;368;48.698;9.116;2024-01-25T14:14:23;5.17;;;2.00;;
769;SDS011;368;48.698;9.116;2024-01-25T14:16:49;2.87;;;1.30;;
769;SDS011;368;48.698;9.116;2024-01-25T14:19:16;3.63;;;1.27;;
769;SDS011;368;48.698;9.116;2024-01-25T14:21:45;7.10;;;1.90;;
769;SDS011;368;48.698;9.116;2024-01-25T14:24:14;7.57;;;2.30;;
769;SDS011;368;48.698;9.116;2024-01-25T14:26:41;8.97;;;1.87;;
769;SDS011;368;48.698;9.116;2024-01-25T14:29:08;6.13;;;1.77;;
769;SDS011;368;48.698;9.116;2024-01-25T14:31:35;5.97;;;1.63;;
769;SDS011;368;48.698;9.116;2024-01-25T14:34:02;6.80;;;3.00;;
769;SDS011;368;48.698;9.116;2024-01-25T14:36:29;6.90;;;1.90;;
769;SDS011;368;48.698;9.116;2024-01-25T14:38:55;4.83;;;2.00;;
769;SDS011;368;48.698;9.116;2024-01-25T14:41:24;7.03;;;2.97;;
769;SDS011;368;48.698;9.116;2024-01-25T14:43:50;7.20;;;3.37;;
769;SDS011;368;48.698;9.116;2024-01-25T14:46:17;7.23;;;3.80;;
769;SDS011;368;48.698;9.116;2024-01-25T14:48:44;7.80;;;2.90;;
769;SDS011;368;48.698;9.116;2024-01-25T14:51:11;7.37;;;2.77;;
769;SDS011;368;48.698;9.116;2024-01-25T14:53:38;5.63;;;1.70;;
769;SDS011;368;48.698;9.116;2024-01-25T14:56:05;4.13;;;1.63;;
769;SDS011;368;48.698;9.116;2024-01-25T14:58:35;6.00;;;1.83;;
769;SDS011;368;48.698;9.116;2024-01-25T15:01:02;3.33;;;1.57;;
769;SDS011;368;48.698;9.116;2024-01-25T15:03:28;6.57;;;2.17;;
769;SDS011;368;48.698;9.116;2024-01-25T15:05:55;10.20;;;1.87;;
769;SDS011;368;48.698;9.116;2024-01-25T15:08:23;4.47;;;1.87;;
769;SDS011;368;48.698;9.116;2024-01-25T15:10:50;7.90;;;2.00;;
769;SDS011;368;48.698;9.116;2024-01-25T15:13:17;3.50;;;1.50;;
769;SDS011;368;48.698;9.116;2024-01-25T15:15:45;4.97;;;2.20;;
769;SDS011;368;48.698;9.116;2024-01-25T15:18:12;4.77;;;1.53;;
769;SDS011;368;48.698;9.116;2024-01-25T15:20:39;5.17;;;1.53;;
769;SDS011;368;48.698;9.116;2024-01-25T15:23:05;5.47;;;1.90;;
769;SDS011;368;48.698;9.116;2024-01-25T15:25:33;5.43;;;1.90;;
769;SDS011;368;48.698;9.116;2024-01-25T15:28:01;5.53;;;2.07;;
769;SDS011;368;48.698;9.116;2024-01-25T15:30:28;7.70;;;1.80;;
769;SDS011;368;48.698;9.116;2024-01-25T15:32:56;4.13;;;1.23;;
769;SDS011;368;48.698;9.116;2024-01-25T15:35:23;6.93;;;2.00;;
769;SDS011;368;48.698;9.116;2024-01-25T15:37:49;6.20;;;1.73;;